La Paz, Argentina
Current Conditions -  °F | °C
As of 7:00 PM on Saturday 25 Oct 2014 (Local Time) from SAME Reporting Station
Few Clouds Few Clouds  
Wind Chill: 90°   Ceiling: Unl
Heat Index: 90°   Visibility: 6mi
Dew Point: 59°   Wind: 2mph
Humidity: 36%   Direction: 50°NE
Pressure: 29.71"   Gusts: NA
Location:  33.47°S, 67.55°W
Report Text: SAME 252200Z 05002KT 9999 FEW045 32/15 Q1006
Loading
Personal Weather Stations






























Interactive Weather Map
Tropical Storm Tracking
New forecast layout! Learn more

10-Day Weather Forecast

Advertisements
Track Severe Weather on mobile